Hawk Junction, Canada
Current Conditions -  °F | °C
As of 8:00 AM on Friday 24 Oct 2014 (Local Time) from CYXZ Reporting Station
Moderate Fog Moderate Fog  
Wind Chill: 40°   Ceiling: 100
Heat Index: 45°   Visibility: 0.5mi
Dew Point: 45°   Wind: 8mph
Humidity: 100%   Direction: 230°SW
Pressure: 29.95"   Gusts: NA
Location:  48.09°N, 84.56°W
Report Text: CYXZ 241200Z 23007KT 1/2SM FG VV001 07/07 A2995 RMK FG8 SLP151
Loading
Personal Weather Stations






























Interactive Weather Map
Tropical Storm Tracking
New forecast layout! Learn more

10-Day Weather Forecast

Advertisements
Track Severe Weather on mobile